sensor_id;sensor_type;location;lat;lon;timestamp;temperature;humidity
22714;DHT22;11524;50.846;4.326;2023-05-20T00:01:03;21.80;52.90
22714;DHT22;11524;50.846;4.326;2023-05-20T00:03:29;21.80;52.50
22714;DHT22;11524;50.846;4.326;2023-05-20T00:05:55;21.80;53.20
22714;DHT22;11524;50.846;4.326;2023-05-20T00:08:20;21.70;53.10
22714;DHT22;11524;50.846;4.326;2023-05-20T00:10:46;21.70;53.10
22714;DHT22;11524;50.846;4.326;2023-05-20T00:13:11;21.70;52.40
22714;DHT22;11524;50.846;4.326;2023-05-20T00:15:37;21.70;53.20
22714;DHT22;11524;50.846;4.326;2023-05-20T00:18:03;21.70;53.30
22714;DHT22;11524;50.846;4.326;2023-05-20T00:20:29;21.70;53.10
22714;DHT22;11524;50.846;4.326;2023-05-20T00:22:55;21.70;53.70
22714;DHT22;11524;50.846;4.326;2023-05-20T00:25:21;21.70;54.20
22714;DHT22;11524;50.846;4.326;2023-05-20T00:27:46;21.70;53.30
22714;DHT22;11524;50.846;4.326;2023-05-20T00:30:12;21.70;53.40
22714;DHT22;11524;50.846;4.326;2023-05-20T00:32:38;21.70;53.30
22714;DHT22;11524;50.846;4.326;2023-05-20T00:35:04;21.70;52.90
22714;DHT22;11524;50.846;4.326;2023-05-20T00:37:30;21.70;53.30
22714;DHT22;11524;50.846;4.326;2023-05-20T00:39:56;21.70;53.90
22714;DHT22;11524;50.846;4.326;2023-05-20T00:42:23;21.70;53.90
22714;DHT22;11524;50.846;4.326;2023-05-20T00:44:48;21.70;54.10
22714;DHT22;11524;50.846;4.326;2023-05-20T00:47:15;21.70;54.00
22714;DHT22;11524;50.846;4.326;2023-05-20T00:49:45;21.70;53.90
22714;DHT22;11524;50.846;4.326;2023-05-20T00:52:12;21.60;54.10
22714;DHT22;11524;50.846;4.326;2023-05-20T00:54:39;21.60;53.90
22714;DHT22;11524;50.846;4.326;2023-05-20T00:57:06;21.60;53.90
22714;DHT22;11524;50.846;4.326;2023-05-20T00:59:33;21.60;54.20
22714;DHT22;11524;50.846;4.326;2023-05-20T01:01:59;21.60;48.50
22714;DHT22;11524;50.846;4.326;2023-05-20T01:04:26;21.50;47.10
22714;DHT22;11524;50.846;4.326;2023-05-20T01:06:51;21.50;47.20
22714;DHT22;11524;50.846;4.326;2023-05-20T01:09:17;21.50;47.40
22714;DHT22;11524;50.846;4.326;2023-05-20T01:12:15;21.50;47.20
22714;DHT22;11524;50.846;4.326;2023-05-20T01:14:48;21.50;46.50
22714;DHT22;11524;50.846;4.326;2023-05-20T01:17:15;21.40;47.10
22714;DHT22;11524;50.846;4.326;2023-05-20T01:19:45;21.40;47.30
22714;DHT22;11524;50.846;4.326;2023-05-20T01:22:13;21.40;47.10
22714;DHT22;11524;50.846;4.326;2023-05-20T01:24:45;21.40;47.50
22714;DHT22;11524;50.846;4.326;2023-05-20T01:27:18;21.30;46.80
22714;DHT22;11524;50.846;4.326;2023-05-20T01:29:45;21.30;47.20
22714;DHT22;11524;50.846;4.326;2023-05-20T01:32:22;21.30;47.40
22714;DHT22;11524;50.846;4.326;2023-05-20T01:34:49;21.30;47.20
22714;DHT22;11524;50.846;4.326;2023-05-20T01:37:17;21.30;47.40
22714;DHT22;11524;50.846;4.326;2023-05-20T01:39:44;21.30;47.50
22714;DHT22;11524;50.846;4.326;2023-05-20T01:42:11;21.30;47.10
22714;DHT22;11524;50.846;4.326;2023-05-20T01:44:38;21.30;47.20
22714;DHT22;11524;50.846;4.326;2023-05-20T01:47:04;21.20;47.30
22714;DHT22;11524;50.846;4.326;2023-05-20T01:49:30;21.20;47.30
22714;DHT22;11524;50.846;4.326;2023-05-20T01:51:56;21.20;47.20
22714;DHT22;11524;50.846;4.326;2023-05-20T01:54:22;21.20;47.80
22714;DHT22;11524;50.846;4.326;2023-05-20T01:56:48;21.20;47.30
22714;DHT22;11524;50.846;4.326;2023-05-20T01:59:14;21.20;47.80
22714;DHT22;11524;50.846;4.326;2023-05-20T02:01:39;21.20;47.60
22714;DHT22;11524;50.846;4.326;2023-05-20T02:04:05;21.20;47.80
22714;DHT22;11524;50.846;4.326;2023-05-20T02:06:31;21.10;47.40
22714;DHT22;11524;50.846;4.326;2023-05-20T02:08:57;21.10;47.70
22714;DHT22;11524;50.846;4.326;2023-05-20T02:11:22;21.10;47.60
22714;DHT22;11524;50.846;4.326;2023-05-20T02:13:49;21.10;48.00
22714;DHT22;11524;50.846;4.326;2023-05-20T02:16:15;21.10;47.80
22714;DHT22;11524;50.846;4.326;2023-05-20T02:18:40;21.10;47.30
22714;DHT22;11524;50.846;4.326;2023-05-20T02:21:06;21.10;47.80
22714;DHT22;11524;50.846;4.326;2023-05-20T02:23:32;21.00;48.00
22714;DHT22;11524;50.846;4.326;2023-05-20T02:25:58;21.00;47.90
22714;DHT22;11524;50.846;4.326;2023-05-20T02:28:24;21.00;47.90
22714;DHT22;11524;50.846;4.326;2023-05-20T02:30:50;21.00;48.30
22714;DHT22;11524;50.846;4.326;2023-05-20T02:33:16;21.00;48.10
22714;DHT22;11524;50.846;4.326;2023-05-20T02:35:42;21.00;48.30
22714;DHT22;11524;50.846;4.326;2023-05-20T02:38:07;21.00;48.10
22714;DHT22;11524;50.846;4.326;2023-05-20T02:40:33;21.00;48.40
22714;DHT22;11524;50.846;4.326;2023-05-20T02:42:59;20.90;48.20
22714;DHT22;11524;50.846;4.326;2023-05-20T02:45:26;20.90;48.10
22714;DHT22;11524;50.846;4.326;2023-05-20T02:47:52;20.90;48.40
22714;DHT22;11524;50.846;4.326;2023-05-20T02:50:17;20.90;48.30
22714;DHT22;11524;50.846;4.326;2023-05-20T02:52:43;20.90;48.50
22714;DHT22;11524;50.846;4.326;2023-05-20T02:55:10;20.90;48.50
22714;DHT22;11524;50.846;4.326;2023-05-20T02:57:35;20.80;48.60
22714;DHT22;11524;50.846;4.326;2023-05-20T03:00:06;20.90;48.60
22714;DHT22;11524;50.846;4.326;2023-05-20T03:02:35;20.90;48.40
22714;DHT22;11524;50.846;4.326;2023-05-20T03:05:01;20.80;48.50
22714;DHT22;11524;50.846;4.326;2023-05-20T03:07:30;20.80;48.20
22714;DHT22;11524;50.846;4.326;2023-05-20T03:09:56;20.80;48.70
22714;DHT22;11524;50.846;4.326;2023-05-20T03:12:23;20.80;48.30
22714;DHT22;11524;50.846;4.326;2023-05-20T03:14:51;20.80;48.30
22714;DHT22;11524;50.846;4.326;2023-05-20T03:17:20;20.80;48.10
22714;DHT22;11524;50.846;4.326;2023-05-20T03:19:45;20.80;48.20
22714;DHT22;11524;50.846;4.326;2023-05-20T03:22:11;20.80;48.30
22714;DHT22;11524;50.846;4.326;2023-05-20T03:24:37;20.80;48.00
22714;DHT22;11524;50.846;4.326;2023-05-20T03:27:02;20.70;48.30
22714;DHT22;11524;50.846;4.326;2023-05-20T03:29:28;20.80;48.20
22714;DHT22;11524;50.846;4.326;2023-05-20T03:31:54;20.70;48.20
22714;DHT22;11524;50.846;4.326;2023-05-20T03:34:20;20.70;48.10
22714;DHT22;11524;50.846;4.326;2023-05-20T03:36:46;20.70;47.90
22714;DHT22;11524;50.846;4.326;2023-05-20T03:39:12;20.70;48.20
22714;DHT22;11524;50.846;4.326;2023-05-20T03:41:37;20.70;48.20
22714;DHT22;11524;50.846;4.326;2023-05-20T03:44:03;20.70;48.40
22714;DHT22;11524;50.846;4.326;2023-05-20T03:46:29;20.70;48.70
22714;DHT22;11524;50.846;4.326;2023-05-20T03:48:56;20.70;48.50
22714;DHT22;11524;50.846;4.326;2023-05-20T03:51:22;20.70;48.50
22714;DHT22;11524;50.846;4.326;2023-05-20T03:53:48;20.70;48.30
22714;DHT22;11524;50.846;4.326;2023-05-20T03:56:13;20.70;48.20
22714;DHT22;11524;50.846;4.326;2023-05-20T03:58:39;20.60;48.20
22714;DHT22;11524;50.846;4.326;2023-05-20T04:01:04;20.60;48.50
22714;DHT22;11524;50.846;4.326;2023-05-20T04:03:30;20.60;48.70
22714;DHT22;11524;50.846;4.326;2023-05-20T04:05:56;20.60;48.30
22714;DHT22;11524;50.846;4.326;2023-05-20T04:08:21;20.60;48.60
22714;DHT22;11524;50.846;4.326;2023-05-20T04:10:54;20.60;48.40
22714;DHT22;11524;50.846;4.326;2023-05-20T04:13:20;20.60;48.50
22714;DHT22;11524;50.846;4.326;2023-05-20T04:15:46;20.60;48.50
22714;DHT22;11524;50.846;4.326;2023-05-20T04:18:12;20.50;48.60
22714;DHT22;11524;50.846;4.326;2023-05-20T04:20:38;20.60;48.40
22714;DHT22;11524;50.846;4.326;2023-05-20T04:23:05;20.60;48.50
22714;DHT22;11524;50.846;4.326;2023-05-20T04:25:31;20.50;48.90
22714;DHT22;11524;50.846;4.326;2023-05-20T04:27:58;20.50;48.90
22714;DHT22;11524;50.846;4.326;2023-05-20T04:30:24;20.50;48.70
22714;DHT22;11524;50.846;4.326;2023-05-20T04:32:50;20.50;48.60
22714;DHT22;11524;50.846;4.326;2023-05-20T04:35:16;20.50;48.50
22714;DHT22;11524;50.846;4.326;2023-05-20T04:37:42;20.50;48.60
22714;DHT22;11524;50.846;4.326;2023-05-20T04:40:19;20.50;48.70
22714;DHT22;11524;50.846;4.326;2023-05-20T04:42:45;20.50;48.60
22714;DHT22;11524;50.846;4.326;2023-05-20T04:45:11;20.50;48.60
22714;DHT22;11524;50.846;4.326;2023-05-20T04:47:38;20.50;48.30
22714;DHT22;11524;50.846;4.326;2023-05-20T04:50:05;20.50;48.30
22714;DHT22;11524;50.846;4.326;2023-05-20T04:52:35;20.60;48.40
22714;DHT22;11524;50.846;4.326;2023-05-20T04:55:01;20.60;48.40
22714;DHT22;11524;50.846;4.326;2023-05-20T04:57:27;20.60;48.40
22714;DHT22;11524;50.846;4.326;2023-05-20T04:59:53;20.60;48.30
22714;DHT22;11524;50.846;4.326;2023-05-20T05:02:23;20.60;48.50
22714;DHT22;11524;50.846;4.326;2023-05-20T05:04:49;20.60;48.40
22714;DHT22;11524;50.846;4.326;2023-05-20T05:07:14;20.60;53.70
22714;DHT22;11524;50.846;4.326;2023-05-20T05:09:40;20.60;53.80
22714;DHT22;11524;50.846;4.326;2023-05-20T05:12:06;20.70;53.70
22714;DHT22;11524;50.846;4.326;2023-05-20T05:14:31;20.70;53.00
22714;DHT22;11524;50.846;4.326;2023-05-20T05:16:57;20.80;54.00
22714;DHT22;11524;50.846;4.326;2023-05-20T05:19:23;20.90;53.30
22714;DHT22;11524;50.846;4.326;2023-05-20T05:21:49;20.90;53.20
22714;DHT22;11524;50.846;4.326;2023-05-20T05:24:16;20.90;52.70
22714;DHT22;11524;50.846;4.326;2023-05-20T05:26:41;20.90;53.00
22714;DHT22;11524;50.846;4.326;2023-05-20T05:29:08;20.90;52.90
22714;DHT22;11524;50.846;4.326;2023-05-20T05:31:34;21.00;53.00
22714;DHT22;11524;50.846;4.326;2023-05-20T05:33:59;21.00;53.60
22714;DHT22;11524;50.846;4.326;2023-05-20T05:36:25;21.10;52.40
22714;DHT22;11524;50.846;4.326;2023-05-20T05:38:51;21.10;51.60
22714;DHT22;11524;50.846;4.326;2023-05-20T05:41:17;21.20;51.80
22714;DHT22;11524;50.846;4.326;2023-05-20T05:43:42;21.20;52.20
22714;DHT22;11524;50.846;4.326;2023-05-20T05:46:08;21.20;51.70
22714;DHT22;11524;50.846;4.326;2023-05-20T05:48:35;21.20;51.20
22714;DHT22;11524;50.846;4.326;2023-05-20T05:51:01;21.30;51.20
22714;DHT22;11524;50.846;4.326;2023-05-20T05:53:26;21.30;51.10
22714;DHT22;11524;50.846;4.326;2023-05-20T05:55:52;21.30;51.30
22714;DHT22;11524;50.846;4.326;2023-05-20T05:58:18;21.30;50.40
22714;DHT22;11524;50.846;4.326;2023-05-20T06:00:43;21.30;50.40
22714;DHT22;11524;50.846;4.326;2023-05-20T06:03:09;21.40;49.80
22714;DHT22;11524;50.846;4.326;2023-05-20T06:05:35;21.40;50.10
22714;DHT22;11524;50.846;4.326;2023-05-20T06:08:01;21.40;50.10
22714;DHT22;11524;50.846;4.326;2023-05-20T06:10:26;21.40;49.70
22714;DHT22;11524;50.846;4.326;2023-05-20T06:12:52;21.50;49.20
22714;DHT22;11524;50.846;4.326;2023-05-20T06:15:18;21.50;49.60
22714;DHT22;11524;50.846;4.326;2023-05-20T06:17:43;21.50;48.90
22714;DHT22;11524;50.846;4.326;2023-05-20T06:20:09;21.50;48.90
22714;DHT22;11524;50.846;4.326;2023-05-20T06:22:36;21.60;49.40
22714;DHT22;11524;50.846;4.326;2023-05-20T06:25:01;21.50;46.20
22714;DHT22;11524;50.846;4.326;2023-05-20T06:27:27;21.50;45.40
22714;DHT22;11524;50.846;4.326;2023-05-20T06:29:53;21.50;45.90
22714;DHT22;11524;50.846;4.326;2023-05-20T06:32:18;21.50;46.10
22714;DHT22;11524;50.846;4.326;2023-05-20T06:34:44;21.60;45.90
22714;DHT22;11524;50.846;4.326;2023-05-20T06:37:10;21.70;46.50
22714;DHT22;11524;50.846;4.326;2023-05-20T06:39:36;21.80;45.70
22714;DHT22;11524;50.846;4.326;2023-05-20T06:42:02;21.90;45.20
22714;DHT22;11524;50.846;4.326;2023-05-20T06:44:27;22.00;45.10
22714;DHT22;11524;50.846;4.326;2023-05-20T06:46:54;22.30;45.50
22714;DHT22;11524;50.846;4.326;2023-05-20T06:49:19;22.70;46.10
22714;DHT22;11524;50.846;4.326;2023-05-20T06:51:45;23.20;46.10
22714;DHT22;11524;50.846;4.326;2023-05-20T06:54:11;23.60;45.50
22714;DHT22;11524;50.846;4.326;2023-05-20T06:56:36;23.80;43.50
22714;DHT22;11524;50.846;4.326;2023-05-20T06:59:02;24.00;43.30
22714;DHT22;11524;50.846;4.326;2023-05-20T07:01:28;24.30;43.20
22714;DHT22;11524;50.846;4.326;2023-05-20T07:03:53;24.40;43.00
22714;DHT22;11524;50.846;4.326;2023-05-20T07:06:19;24.60;42.70
22714;DHT22;11524;50.846;4.326;2023-05-20T07:08:45;24.70;42.40
22714;DHT22;11524;50.846;4.326;2023-05-20T07:11:10;24.90;42.10
22714;DHT22;11524;50.846;4.326;2023-05-20T07:13:36;25.00;41.80
22714;DHT22;11524;50.846;4.326;2023-05-20T07:16:02;25.10;41.60
22714;DHT22;11524;50.846;4.326;2023-05-20T07:18:28;25.20;41.40
22714;DHT22;11524;50.846;4.326;2023-05-20T07:20:54;25.20;41.80
22714;DHT22;11524;50.846;4.326;2023-05-20T07:23:21;25.40;41.30
22714;DHT22;11524;50.846;4.326;2023-05-20T07:25:47;25.40;41.30
22714;DHT22;11524;50.846;4.326;2023-05-20T07:28:15;25.60;41.10
22714;DHT22;11524;50.846;4.326;2023-05-20T07:30:42;25.70;41.00
22714;DHT22;11524;50.846;4.326;2023-05-20T07:33:14;25.80;40.80
22714;DHT22;11524;50.846;4.326;2023-05-20T07:35:40;25.90;40.70
22714;DHT22;11524;50.846;4.326;2023-05-20T07:38:06;26.10;40.60
22714;DHT22;11524;50.846;4.326;2023-05-20T07:40:31;26.20;40.20
22714;DHT22;11524;50.846;4.326;2023-05-20T07:42:57;26.40;40.20
22714;DHT22;11524;50.846;4.326;2023-05-20T07:45:22;26.50;40.30
22714;DHT22;11524;50.846;4.326;2023-05-20T07:47:48;26.60;39.90
22714;DHT22;11524;50.846;4.326;2023-05-20T07:50:14;26.70;39.30
22714;DHT22;11524;50.846;4.326;2023-05-20T07:52:40;26.70;38.60
22714;DHT22;11524;50.846;4.326;2023-05-20T07:55:05;26.70;38.20
22714;DHT22;11524;50.846;4.326;2023-05-20T07:57:31;26.70;38.00
22714;DHT22;11524;50.846;4.326;2023-05-20T07:59:57;26.70;38.50
22714;DHT22;11524;50.846;4.326;2023-05-20T08:02:23;26.60;38.80
22714;DHT22;11524;50.846;4.326;2023-05-20T08:04:48;26.50;38.80
22714;DHT22;11524;50.846;4.326;2023-05-20T08:07:14;26.40;38.50
22714;DHT22;11524;50.846;4.326;2023-05-20T08:09:40;26.40;39.30
22714;DHT22;11524;50.846;4.326;2023-05-20T08:12:06;26.30;39.30
22714;DHT22;11524;50.846;4.326;2023-05-20T08:14:31;26.20;39.20
22714;DHT22;11524;50.846;4.326;2023-05-20T08:16:57;26.20;38.50
22714;DHT22;11524;50.846;4.326;2023-05-20T08:19:23;26.00;38.10
22714;DHT22;11524;50.846;4.326;2023-05-20T08:21:48;26.00;38.90
22714;DHT22;11524;50.846;4.326;2023-05-20T08:24:14;26.00;39.40
22714;DHT22;11524;50.846;4.326;2023-05-20T08:26:40;25.90;38.90
22714;DHT22;11524;50.846;4.326;2023-05-20T08:29:05;25.90;39.10
22714;DHT22;11524;50.846;4.326;2023-05-20T08:31:33;25.90;39.30
22714;DHT22;11524;50.846;4.326;2023-05-20T08:33:58;25.90;39.30
22714;DHT22;11524;50.846;4.326;2023-05-20T08:36:24;25.90;39.10
22714;DHT22;11524;50.846;4.326;2023-05-20T08:38:50;26.00;39.10
22714;DHT22;11524;50.846;4.326;2023-05-20T08:41:16;26.10;38.90
22714;DHT22;11524;50.846;4.326;2023-05-20T08:43:44;26.10;38.40
22714;DHT22;11524;50.846;4.326;2023-05-20T08:46:11;26.30;39.10
22714;DHT22;11524;50.846;4.326;2023-05-20T08:48:36;26.50;39.10
22714;DHT22;11524;50.846;4.326;2023-05-20T08:51:02;26.70;39.00
22714;DHT22;11524;50.846;4.326;2023-05-20T08:53:29;26.90;38.80
22714;DHT22;11524;50.846;4.326;2023-05-20T08:55:57;27.10;38.90
22714;DHT22;11524;50.846;4.326;2023-05-20T08:58:24;27.20;38.90
22714;DHT22;11524;50.846;4.326;2023-05-20T09:00:50;27.30;38.80
22714;DHT22;11524;50.846;4.326;2023-05-20T09:03:17;27.40;38.80
22714;DHT22;11524;50.846;4.326;2023-05-20T09:05:45;27.40;38.70
22714;DHT22;11524;50.846;4.326;2023-05-20T09:08:11;27.50;38.60
22714;DHT22;11524;50.846;4.326;2023-05-20T09:10:38;27.40;38.40
22714;DHT22;11524;50.846;4.326;2023-05-20T09:13:05;27.40;38.40
22714;DHT22;11524;50.846;4.326;2023-05-20T09:15:32;27.40;38.40
22714;DHT22;11524;50.846;4.326;2023-05-20T09:18:00;27.30;38.40
22714;DHT22;11524;50.846;4.326;2023-05-20T09:20:29;27.20;38.70
22714;DHT22;11524;50.846;4.326;2023-05-20T09:23:00;27.10;39.10
22714;DHT22;11524;50.846;4.326;2023-05-20T09:25:26;26.90;39.20
22714;DHT22;11524;50.846;4.326;2023-05-20T09:27:51;26.80;39.30
22714;DHT22;11524;50.846;4.326;2023-05-20T09:30:20;26.70;39.30
22714;DHT22;11524;50.846;4.326;2023-05-20T09:32:57;26.50;39.60
22714;DHT22;11524;50.846;4.326;2023-05-20T09:35:23;26.40;39.70
22714;DHT22;11524;50.846;4.326;2023-05-20T09:37:54;26.20;40.10
22714;DHT22;11524;50.846;4.326;2023-05-20T09:40:25;26.00;40.40
22714;DHT22;11524;50.846;4.326;2023-05-20T09:43:01;25.90;40.60
22714;DHT22;11524;50.846;4.326;2023-05-20T09:45:28;25.80;40.90
22714;DHT22;11524;50.846;4.326;2023-05-20T09:47:54;25.70;41.30
22714;DHT22;11524;50.846;4.326;2023-05-20T09:50:22;25.60;40.60
22714;DHT22;11524;50.846;4.326;2023-05-20T09:52:50;25.60;40.80
22714;DHT22;11524;50.846;4.326;2023-05-20T09:55:22;25.50;40.70
22714;DHT22;11524;50.846;4.326;2023-05-20T09:57:48;25.40;40.60
22714;DHT22;11524;50.846;4.326;2023-05-20T10:00:15;25.40;40.50
22714;DHT22;11524;50.846;4.326;2023-05-20T10:02:49;25.40;40.60
22714;DHT22;11524;50.846;4.326;2023-05-20T10:05:36;25.30;40.80
22714;DHT22;11524;50.846;4.326;2023-05-20T10:16:58;25.20;41.20
22714;DHT22;11524;50.846;4.326;2023-05-20T10:22:03;25.10;41.20
22714;DHT22;11524;50.846;4.326;2023-05-20T10:24:37;25.10;41.30
22714;DHT22;11524;50.846;4.326;2023-05-20T10:27:06;25.00;41.30
22714;DHT22;11524;50.846;4.326;2023-05-20T10:29:52;25.00;41.40
22714;DHT22;11524;50.846;4.326;2023-05-20T10:32:30;25.00;41.50
22714;DHT22;11524;50.846;4.326;2023-05-20T10:35:04;25.00;41.50
22714;DHT22;11524;50.846;4.326;2023-05-20T10:37:43;25.00;41.50
22714;DHT22;11524;50.846;4.326;2023-05-20T10:40:13;25.00;41.50
22714;DHT22;11524;50.846;4.326;2023-05-20T10:42:40;25.00;41.50
22714;DHT22;11524;50.846;4.326;2023-05-20T10:45:07;24.90;41.50
22714;DHT22;11524;50.846;4.326;2023-05-20T10:47:34;24.90;41.50
22714;DHT22;11524;50.846;4.326;2023-05-20T10:50:00;24.90;41.60
22714;DHT22;11524;50.846;4.326;2023-05-20T10:52:38;24.90;41.60
22714;DHT22;11524;50.846;4.326;2023-05-20T10:55:04;24.90;41.60
22714;DHT22;11524;50.846;4.326;2023-05-20T10:57:30;24.90;41.60
22714;DHT22;11524;50.846;4.326;2023-05-20T10:59:56;24.90;41.60
22714;DHT22;11524;50.846;4.326;2023-05-20T11:02:23;24.90;41.60
22714;DHT22;11524;50.846;4.326;2023-05-20T11:04:55;24.90;41.70
22714;DHT22;11524;50.846;4.326;2023-05-20T11:07:27;24.90;41.80
22714;DHT22;11524;50.846;4.326;2023-05-20T11:09:54;24.90;41.70
22714;DHT22;11524;50.846;4.326;2023-05-20T11:12:21;24.80;41.70
22714;DHT22;11524;50.846;4.326;2023-05-20T11:14:48;24.80;41.70
22714;DHT22;11524;50.846;4.326;2023-05-20T11:17:15;24.80;41.70
22714;DHT22;11524;50.846;4.326;2023-05-20T11:19:42;24.80;41.70
22714;DHT22;11524;50.846;4.326;2023-05-20T11:22:07;24.80;41.70
22714;DHT22;11524;50.846;4.326;2023-05-20T11:24:33;24.80;41.70
22714;DHT22;11524;50.846;4.326;2023-05-20T11:27:00;24.80;41.70
22714;DHT22;11524;50.846;4.326;2023-05-20T11:29:27;24.80;41.70
22714;DHT22;11524;50.846;4.326;2023-05-20T11:31:54;24.80;41.70
22714;DHT22;11524;50.846;4.326;2023-05-20T11:34:21;24.80;41.80
22714;DHT22;11524;50.846;4.326;2023-05-20T11:36:47;24.80;41.70
22714;DHT22;11524;50.846;4.326;2023-05-20T11:39:15;24.80;41.80
22714;DHT22;11524;50.846;4.326;2023-05-20T11:41:41;24.80;41.80
22714;DHT22;11524;50.846;4.326;2023-05-20T11:44:11;24.80;41.90
22714;DHT22;11524;50.846;4.326;2023-05-20T11:46:44;24.70;41.90
22714;DHT22;11524;50.846;4.326;2023-05-20T11:49:12;24.70;42.00
22714;DHT22;11524;50.846;4.326;2023-05-20T11:51:38;24.70;42.10
22714;DHT22;11524;50.846;4.326;2023-05-20T11:54:06;24.70;42.00
22714;DHT22;11524;50.846;4.326;2023-05-20T11:56:36;24.70;42.10
22714;DHT22;11524;50.846;4.326;2023-05-20T11:59:06;24.70;42.10
22714;DHT22;11524;50.846;4.326;2023-05-20T12:01:34;24.80;42.30
22714;DHT22;11524;50.846;4.326;2023-05-20T12:04:08;24.80;42.50
22714;DHT22;11524;50.846;4.326;2023-05-20T12:06:35;24.80;42.50
22714;DHT22;11524;50.846;4.326;2023-05-20T12:09:05;24.70;42.50
22714;DHT22;11524;50.846;4.326;2023-05-20T12:11:35;24.80;42.60
22714;DHT22;11524;50.846;4.326;2023-05-20T12:14:02;24.80;42.70
22714;DHT22;11524;50.846;4.326;2023-05-20T12:16:29;24.80;42.60
22714;DHT22;11524;50.846;4.326;2023-05-20T12:18:56;24.80;42.60
22714;DHT22;11524;50.846;4.326;2023-05-20T12:21:21;24.80;42.70
22714;DHT22;11524;50.846;4.326;2023-05-20T12:23:47;24.80;42.80
22714;DHT22;11524;50.846;4.326;2023-05-20T12:26:12;24.80;42.80
22714;DHT22;11524;50.846;4.326;2023-05-20T12:28:38;24.80;42.80
22714;DHT22;11524;50.846;4.326;2023-05-20T12:31:04;24.80;42.80
22714;DHT22;11524;50.846;4.326;2023-05-20T12:33:30;24.80;42.70
22714;DHT22;11524;50.846;4.326;2023-05-20T12:35:56;24.80;42.70
22714;DHT22;11524;50.846;4.326;2023-05-20T12:38:22;24.80;42.70
22714;DHT22;11524;50.846;4.326;2023-05-20T12:40:47;24.80;42.90
22714;DHT22;11524;50.846;4.326;2023-05-20T12:43:13;24.80;43.00
22714;DHT22;11524;50.846;4.326;2023-05-20T12:45:39;24.80;42.90
22714;DHT22;11524;50.846;4.326;2023-05-20T12:48:04;24.80;43.00
22714;DHT22;11524;50.846;4.326;2023-05-20T12:50:32;24.80;43.10
22714;DHT22;11524;50.846;4.326;2023-05-20T12:52:58;24.80;43.60
22714;DHT22;11524;50.846;4.326;2023-05-20T12:55:23;24.80;44.30
22714;DHT22;11524;50.846;4.326;2023-05-20T12:57:49;24.90;45.10
22714;DHT22;11524;50.846;4.326;2023-05-20T13:00:15;24.90;45.50
22714;DHT22;11524;50.846;4.326;2023-05-20T13:02:42;24.90;45.80
22714;DHT22;11524;50.846;4.326;2023-05-20T13:05:08;24.90;46.00
22714;DHT22;11524;50.846;4.326;2023-05-20T13:07:34;24.90;45.80
22714;DHT22;11524;50.846;4.326;2023-05-20T13:10:00;24.90;47.10
22714;DHT22;11524;50.846;4.326;2023-05-20T13:12:26;24.90;46.80
22714;DHT22;11524;50.846;4.326;2023-05-20T13:14:52;24.90;47.90
22714;DHT22;11524;50.846;4.326;2023-05-20T13:17:17;24.90;47.30
22714;DHT22;11524;50.846;4.326;2023-05-20T13:19:43;24.90;46.90
22714;DHT22;11524;50.846;4.326;2023-05-20T13:22:11;24.90;46.60
22714;DHT22;11524;50.846;4.326;2023-05-20T13:24:37;24.90;46.50
22714;DHT22;11524;50.846;4.326;2023-05-20T13:27:03;24.90;46.40
22714;DHT22;11524;50.846;4.326;2023-05-20T13:29:29;24.90;46.20
22714;DHT22;11524;50.846;4.326;2023-05-20T13:31:55;24.90;46.20
22714;DHT22;11524;50.846;4.326;2023-05-20T13:34:21;24.90;46.10
22714;DHT22;11524;50.846;4.326;2023-05-20T13:36:46;24.90;46.00
22714;DHT22;11524;50.846;4.326;2023-05-20T13:39:13;24.90;45.90
22714;DHT22;11524;50.846;4.326;2023-05-20T13:41:39;24.90;45.60
22714;DHT22;11524;50.846;4.326;2023-05-20T13:44:05;24.90;45.50
22714;DHT22;11524;50.846;4.326;2023-05-20T13:46:31;24.90;45.40
22714;DHT22;11524;50.846;4.326;2023-05-20T13:48:57;24.90;45.30
22714;DHT22;11524;50.846;4.326;2023-05-20T13:51:22;24.90;45.10
22714;DHT22;11524;50.846;4.326;2023-05-20T13:53:48;24.90;44.90
22714;DHT22;11524;50.846;4.326;2023-05-20T13:56:13;24.90;44.80
22714;DHT22;11524;50.846;4.326;2023-05-20T13:58:39;24.90;44.80
22714;DHT22;11524;50.846;4.326;2023-05-20T14:01:05;24.90;44.60
22714;DHT22;11524;50.846;4.326;2023-05-20T14:03:31;24.80;44.40
22714;DHT22;11524;50.846;4.326;2023-05-20T14:06:01;24.80;44.40
22714;DHT22;11524;50.846;4.326;2023-05-20T14:08:27;24.80;44.50
22714;DHT22;11524;50.846;4.326;2023-05-20T14:10:52;24.80;44.40
22714;DHT22;11524;50.846;4.326;2023-05-20T14:13:21;24.90;44.40
22714;DHT22;11524;50.846;4.326;2023-05-20T14:15:46;24.90;44.40
22714;DHT22;11524;50.846;4.326;2023-05-20T14:18:13;24.90;44.40
22714;DHT22;11524;50.846;4.326;2023-05-20T14:20:39;24.90;44.40
22714;DHT22;11524;50.846;4.326;2023-05-20T14:23:04;24.90;44.40
22714;DHT22;11524;50.846;4.326;2023-05-20T14:25:30;24.90;44.50
22714;DHT22;11524;50.846;4.326;2023-05-20T14:27:56;24.90;44.40
22714;DHT22;11524;50.846;4.326;2023-05-20T14:30:21;24.90;44.60
22714;DHT22;11524;50.846;4.326;2023-05-20T14:32:47;24.90;44.80
22714;DHT22;11524;50.846;4.326;2023-05-20T14:35:13;24.90;44.90
22714;DHT22;11524;50.846;4.326;2023-05-20T14:37:38;24.90;45.20
22714;DHT22;11524;50.846;4.326;2023-05-20T14:40:04;24.90;45.50
22714;DHT22;11524;50.846;4.326;2023-05-20T14:42:32;24.90;45.60
22714;DHT22;11524;50.846;4.326;2023-05-20T14:44:57;24.90;45.50
22714;DHT22;11524;50.846;4.326;2023-05-20T14:47:23;24.90;45.50
22714;DHT22;11524;50.846;4.326;2023-05-20T14:49:50;24.90;45.60
22714;DHT22;11524;50.846;4.326;2023-05-20T14:52:16;24.90;45.40
22714;DHT22;11524;50.846;4.326;2023-05-20T14:54:42;24.90;45.40
22714;DHT22;11524;50.846;4.326;2023-05-20T14:57:07;24.90;45.50
22714;DHT22;11524;50.846;4.326;2023-05-20T14:59:33;24.90;45.40
22714;DHT22;11524;50.846;4.326;2023-05-20T15:01:59;24.90;45.30
22714;DHT22;11524;50.846;4.326;2023-05-20T15:04:25;24.90;45.30
22714;DHT22;11524;50.846;4.326;2023-05-20T15:06:51;24.90;45.30
22714;DHT22;11524;50.846;4.326;2023-05-20T15:09:17;24.90;45.40
22714;DHT22;11524;50.846;4.326;2023-05-20T15:11:43;24.90;45.50
22714;DHT22;11524;50.846;4.326;2023-05-20T15:14:08;24.90;45.50
22714;DHT22;11524;50.846;4.326;2023-05-20T15:16:34;24.90;45.20
22714;DHT22;11524;50.846;4.326;2023-05-20T15:19:00;24.90;45.20
22714;DHT22;11524;50.846;4.326;2023-05-20T15:21:25;24.90;45.30
22714;DHT22;11524;50.846;4.326;2023-05-20T15:23:51;24.90;45.10
22714;DHT22;11524;50.846;4.326;2023-05-20T15:26:17;24.90;44.90
22714;DHT22;11524;50.846;4.326;2023-05-20T15:28:42;24.90;44.60
22714;DHT22;11524;50.846;4.326;2023-05-20T15:31:08;24.90;45.10
22714;DHT22;11524;50.846;4.326;2023-05-20T15:33:34;24.90;44.50
22714;DHT22;11524;50.846;4.326;2023-05-20T15:36:00;24.90;44.60
22714;DHT22;11524;50.846;4.326;2023-05-20T15:38:25;24.90;44.90